x

Cape Suckling - 35 Nm Se Of Kayak Is, Ak (46082) Wave Buoy

1:50am - Sat 25th Oct 2014 All times are AKDT. -8 hours from GMT.

  • Sig Wave height 4.6ft
  • Peak Period 8s
  • Average Period 5s
  • Wind
    9mph, 11mph gusts
  • Sea Temp 52°f
  • Air Temp 46°f
  • Sea Pressure 1009.1mb
  • Cape Suckling - 35 Nm Se Of Kayak Is, Ak
  • Cape Suckling - 35 Nm Se Of Kayak Is, Ak

More Historic Weather Station data

Upgrade to MSW Pro to gain access to the past 30 days of data for over 8000 Wavebouys and Weather Stations around the globe.

Join Pro

Comparision Forecast

View Surf forecast
   
Sat 10/25 1:50am 4.5ft 8s 5s 9 11 mph 1009.1mb 52f 46f
12:50am 4.5ft 10s 5s 11 13 mph 1009.2mb 52f 48f
Fri 10/24 11:50pm 5ft 5s 5s 13 18 mph 1009.4mb 52f 48f
10:50pm 5.5ft 10s 5s 16 18 mph 1009.2mb 52f 48f
9:50pm 5ft 10s 5s 16 20 mph 1009.1mb 52f 48f
8:50pm 5ft 8s 5s 16 18 mph 1009mb 52f 48f
7:50pm 5ft 10s 5s 16 18 mph 1008.9mb 52f 48f
6:50pm 5ft 8s 5s 16 18 mph 1008.7mb 52f 49f
5:50pm 5ft 8s 5s 13 18 mph 1008.5mb 52f 49f
4:50pm 5.5ft 8s 5s 18 20 mph 1008.5mb 52f 46f
3:50pm 5ft 8s 5s 18 20 mph 1008.1mb 52f 49f
2:50pm 5ft 8s 5s 13 16 mph 1008.3mb 52f 48f
1:50pm 5ft 8s 5s 11 13 mph 1008.5mb 52f 48f
12:50pm 5ft 9s 6s 7 9 mph 1008.5mb 52f 47f
11:50am 4.5ft 8s 6s 16 27 mph 1008.2mb 52f 48f
10:50am 5ft 10s 6s 7 9 mph 1007.9mb 51f 48f
9:50am 5ft 9s 6s 7 9 mph 1007.6mb 51f 48f
8:50am 5ft 8s 5s 9 11 mph 1007.1mb 52f 48f
7:50am 5ft 8s 5s 4 7 mph 1006.6mb 52f 48f
6:50am 5.5ft 9s 5s 13 18 mph 1006.4mb 52f 48f
5:50am 6ft 9s 5s 18 20 mph 1006.2mb 52f 47f
4:50am 6ft 8s 5s 18 22 mph 1006.5mb 52f 46f
3:50am 5ft 9s 5s 18 20 mph 1006.4mb 52f 47f
2:50am 4.5ft 9s 5s 18 22 mph 1006.3mb 52f 47f
1:50am 4.5ft 7s 5s 13 18 mph 1006.3mb 52f 49f
12:50am 4.5ft 8s 5s 11 13 mph 1006.2mb 52f 49f
Thu 10/23 11:50pm 4.5ft 7s 6s 11 13 mph 1006mb 52f 50f
10:50pm 4.5ft 8s 6s 9 13 mph 1005.7mb 52f 50f
9:50pm 4.5ft 8s 6s 11 13 mph 1005.4mb 52f 50f
8:50pm 4.5ft 8s 6s 7 11 mph 1005.3mb 52f 49f
7:50pm 5ft 9s 6s 13 16 mph 1004.8mb 52f 48f
6:50pm 4.5ft 8s 6s 7 9 mph 1004.3mb 52f 48f
5:50pm 5ft 9s 7s 16 18 mph 1003.6mb 52f 48f
4:50pm 4.5ft 8s 7s 7 9 mph 1003.1mb 52f 50f
3:50pm 5ft 8s 7s 7 9 mph 1002.5mb 52f 50f
2:50pm 5ft 8s 7s 4 7 mph 1002mb 52f 50f
1:50pm 5ft 8s 6s 2 4 mph 1001.7mb 52f 50f
12:50pm 5ft 7s 7s  -  2 mph 1001.2mb 52f 50f
11:50am 5ft 8s 6s 2
mph
1001mb 52f 49f
10:50am 5ft 8s 6s 4
mph
1000.4mb 52f 49f
9:50am 5ft 8s 6s 4 7 mph 1000.1mb 52f 49f
8:50am 5.5ft 8s 6s 7 9 mph 999.7mb 52f 49f
7:50am 6.5ft 9s 6s 7
mph
999.5mb 52f 49f
6:50am 7ft 8s 6s 11 13 mph 999.4mb 52f 50f
5:50am 7ft 9s 6s 4 7 mph 999.1mb 52f 50f
4:50am 7.5ft 9s 6s 2 4 mph 999mb 52f 51f
3:50am 8ft 9s 6s 2 4 mph 998.8mb 52f 51f
2:50am 9ft 10s 6s 4 7 mph 998.7mb 52f 51f
1:50am 9.5ft 9s 7s 7 9 mph 998.4mb 52f 51f
12:50am 9ft 8s 6s 13 16 mph 998mb 52f 50f
Wed 10/22 11:50pm 8ft 9s 6s 16 18 mph 997.5mb 52f 51f
10:50pm 8ft 10s 6s 16 20 mph 996.9mb 52f 51f
9:50pm 8.5ft 10s 6s 16 20 mph 996mb 52f 50f
8:50pm 9.5ft 8s 6s 22 27 mph 994.8mb 52f 51f
7:50pm 10ft 8s 6s 20 25 mph 993.4mb 52f 49f
6:50pm 11ft 9s 6s 20 25 mph 991.9mb 52f 50f
5:50pm 14ft 8s 6s 34 43 mph 989.9mb 52f 48f
4:50pm 13ft 11s 6s 31 40 mph 990.2mb 52f 48f
3:50pm 12ft 9s 7s 31 40 mph 989.7mb 52f 48f
2:50pm 12.5ft 8s 7s 22 27 mph 989.1mb 52f 51f
1:50pm 12.5ft 11s 8s 22 27 mph 988.6mb 52f 49f
12:50pm 11ft 11s 8s 11 13 mph 987.7mb 52f 52f
11:50am 9ft 11s 7s 11 13 mph 987.4mb 52f 52f
10:50am 10ft 10s 7s 20 22 mph 986.9mb 52f 52f
9:50am 11ft 11s 8s 11 13 mph 985.8mb 52f 51f
8:50am 10ft 10s 7s 16 18 mph 984.9mb 52f 51f
7:50am 9ft 11s 7s 16 20 mph 984.5mb 52f 51f
6:50am 8ft 11s 6s 18 22 mph 984.4mb 52f 51f
5:50am 7.5ft 10s 6s 16 18 mph 984.2mb 52f 51f
4:50am 8ft 10s 7s 13 18 mph 984.3mb 52f 51f
3:50am 8.5ft 10s 7s 16 22 mph 984.7mb 52f 51f
2:50am 9ft 10s 7s 11 16 mph 984.4mb 52f 52f
1:50am 9ft 10s 7s 11 13 mph 984.4mb 52f 51f
12:50am 10.5ft 10s 8s 11 16 mph 984.1mb 52f 51f
Tue 10/21 11:50pm 9ft 10s 7s 11 13 mph 984.1mb 52f 51f
10:50pm 7ft 10s 7s 13 16 mph 984.2mb 52f 50f
9:50pm 6ft 9s 6s 11 13 mph 984.3mb 52f 50f
8:50pm 5.5ft 9s 6s 11
mph
984.8mb 52f 51f
7:50pm 6ft 9s 6s 11 13 mph 985.1mb 52f 51f
6:50pm 5ft 8s 6s 9 11 mph 985.4mb 52f 51f
5:50pm 4.5ft 9s 5s 13
mph
985.6mb 52f 51f
4:50pm 4.5ft 9s 5s 9 11 mph 986mb 52f 50f
3:50pm 4.5ft 5s 5s 7 9 mph 986.3mb 52f 49f
2:50pm 5ft 8s 5s 9 11 mph 986.7mb 52f 49f
1:50pm 5.5ft 9s 5s 11 13 mph 986.9mb 52f 49f
12:50pm 5ft 10s 5s 11 16 mph 987.5mb 52f 49f
11:50am 5ft 11s 5s 13 16 mph 988.1mb 52f 49f
10:50am 5ft 10s 5s 11 16 mph 988.8mb 52f 49f